< < Back
Terminal Aerodrome Forecast


Current Version              Previous Versions:   1  2  3  4  5  6  7  8  9  

Terminal Aerodrome Forecast

838
FTUS42 KFFC 291727
TAFCSG
TAF
KCSG 291727Z 2918/3018 09009KT P6SM VCSH FEW060
      TEMPO 2920/2922 VRB15G30KT -TSRA BKN060CB
     FM300100 08005KT P6SM SCT080
     FM301100 08004KT 4SM BR FEW250
     FM301200 08005KT P6SM FEW250
     FM301500 10009KT P6SM SCT030=



Latest METAR

182
SAUS70 KWBC 300954
MTRCSG
METAR KCSG 300951Z AUTO 08005KT 10SM CLR 23/21 A3002 RMK AO2 SLP161
T02280206


USA.gov is the U.S. government's official web portal to all federal, state and local government web resources and services.